sensor_id;sensor_type;location;lat;lon;timestamp;P1;durP1;ratioP1;P2;durP2;ratioP2
7773;SDS011;3931;42.260;23.116;2022-10-17T00:00:23;9.47;;;5.57;;
7773;SDS011;3931;42.260;23.116;2022-10-17T00:02:49;9.40;;;4.97;;
7773;SDS011;3931;42.260;23.116;2022-10-17T00:05:16;6.93;;;4.50;;
7773;SDS011;3931;42.260;23.116;2022-10-17T00:07:42;8.80;;;5.37;;
7773;SDS011;3931;42.260;23.116;2022-10-17T00:10:08;8.60;;;4.97;;
7773;SDS011;3931;42.260;23.116;2022-10-17T00:12:34;5.60;;;4.30;;
7773;SDS011;3931;42.260;23.116;2022-10-17T00:15:02;9.67;;;4.83;;
7773;SDS011;3931;42.260;23.116;2022-10-17T00:17:29;6.50;;;4.37;;
7773;SDS011;3931;42.260;23.116;2022-10-17T00:19:57;7.70;;;4.73;;
7773;SDS011;3931;42.260;23.116;2022-10-17T00:22:23;8.70;;;4.50;;
7773;SDS011;3931;42.260;23.116;2022-10-17T00:24:50;8.73;;;4.70;;
7773;SDS011;3931;42.260;23.116;2022-10-17T00:27:16;8.20;;;5.00;;
7773;SDS011;3931;42.260;23.116;2022-10-17T00:29:42;11.73;;;4.80;;
7773;SDS011;3931;42.260;23.116;2022-10-17T00:32:12;6.93;;;3.90;;
7773;SDS011;3931;42.260;23.116;2022-10-17T00:34:39;7.40;;;4.50;;
7773;SDS011;3931;42.260;23.116;2022-10-17T00:37:05;9.33;;;4.60;;
7773;SDS011;3931;42.260;23.116;2022-10-17T00:39:31;8.10;;;4.60;;
7773;SDS011;3931;42.260;23.116;2022-10-17T00:41:57;7.80;;;4.83;;
7773;SDS011;3931;42.260;23.116;2022-10-17T00:47:24;9.20;;;4.47;;
7773;SDS011;3931;42.260;23.116;2022-10-17T00:49:50;7.93;;;4.50;;
7773;SDS011;3931;42.260;23.116;2022-10-17T00:52:17;7.07;;;4.47;;
7773;SDS011;3931;42.260;23.116;2022-10-17T00:54:47;10.13;;;5.30;;
7773;SDS011;3931;42.260;23.116;2022-10-17T00:57:16;6.03;;;4.40;;
7773;SDS011;3931;42.260;23.116;2022-10-17T00:59:42;11.50;;;4.47;;
7773;SDS011;3931;42.260;23.116;2022-10-17T01:02:12;8.77;;;4.70;;
7773;SDS011;3931;42.260;23.116;2022-10-17T01:04:42;8.57;;;5.03;;
7773;SDS011;3931;42.260;23.116;2022-10-17T01:07:09;8.50;;;5.60;;
7773;SDS011;3931;42.260;23.116;2022-10-17T01:09:35;7.00;;;5.03;;
7773;SDS011;3931;42.260;23.116;2022-10-17T01:12:04;9.87;;;4.50;;
7773;SDS011;3931;42.260;23.116;2022-10-17T01:14:37;6.60;;;4.40;;
7773;SDS011;3931;42.260;23.116;2022-10-17T01:17:12;7.33;;;4.60;;
7773;SDS011;3931;42.260;23.116;2022-10-17T01:19:54;7.20;;;5.00;;
7773;SDS011;3931;42.260;23.116;2022-10-17T01:22:38;8.90;;;4.67;;
7773;SDS011;3931;42.260;23.116;2022-10-17T01:25:15;6.90;;;4.90;;
7773;SDS011;3931;42.260;23.116;2022-10-17T01:27:51;10.23;;;5.00;;
7773;SDS011;3931;42.260;23.116;2022-10-17T01:30:28;6.33;;;4.67;;
7773;SDS011;3931;42.260;23.116;2022-10-17T01:33:13;10.60;;;5.63;;
7773;SDS011;3931;42.260;23.116;2022-10-17T01:35:47;9.67;;;4.60;;
7773;SDS011;3931;42.260;23.116;2022-10-17T01:38:19;7.53;;;5.00;;
7773;SDS011;3931;42.260;23.116;2022-10-17T01:40:50;6.70;;;5.30;;
7773;SDS011;3931;42.260;23.116;2022-10-17T01:43:24;8.77;;;5.70;;
7773;SDS011;3931;42.260;23.116;2022-10-17T01:45:58;7.70;;;5.00;;
7773;SDS011;3931;42.260;23.116;2022-10-17T01:48:30;8.30;;;4.90;;
7773;SDS011;3931;42.260;23.116;2022-10-17T01:51:00;9.47;;;5.20;;
7773;SDS011;3931;42.260;23.116;2022-10-17T01:53:32;8.20;;;4.90;;
7773;SDS011;3931;42.260;23.116;2022-10-17T01:56:02;11.23;;;4.67;;
7773;SDS011;3931;42.260;23.116;2022-10-17T01:58:33;6.17;;;4.70;;
7773;SDS011;3931;42.260;23.116;2022-10-17T02:01:05;9.80;;;5.47;;
7773;SDS011;3931;42.260;23.116;2022-10-17T02:03:33;8.77;;;5.17;;
7773;SDS011;3931;42.260;23.116;2022-10-17T02:06:00;13.37;;;4.53;;
7773;SDS011;3931;42.260;23.116;2022-10-17T02:08:27;7.60;;;5.00;;
7773;SDS011;3931;42.260;23.116;2022-10-17T02:10:55;9.80;;;5.40;;
7773;SDS011;3931;42.260;23.116;2022-10-17T02:13:27;9.33;;;4.90;;
7773;SDS011;3931;42.260;23.116;2022-10-17T02:16:06;6.23;;;4.37;;
7773;SDS011;3931;42.260;23.116;2022-10-17T02:18:49;10.90;;;4.77;;
7773;SDS011;3931;42.260;23.116;2022-10-17T02:21:27;5.53;;;4.37;;
7773;SDS011;3931;42.260;23.116;2022-10-17T02:24:04;5.63;;;4.60;;
7773;SDS011;3931;42.260;23.116;2022-10-17T02:26:37;6.23;;;4.40;;
7773;SDS011;3931;42.260;23.116;2022-10-17T02:29:11;7.53;;;4.23;;
7773;SDS011;3931;42.260;23.116;2022-10-17T02:31:42;6.77;;;4.80;;
7773;SDS011;3931;42.260;23.116;2022-10-17T02:34:15;7.37;;;4.63;;
7773;SDS011;3931;42.260;23.116;2022-10-17T02:36:46;8.60;;;4.67;;
7773;SDS011;3931;42.260;23.116;2022-10-17T02:39:16;5.47;;;4.43;;
7773;SDS011;3931;42.260;23.116;2022-10-17T02:41:45;8.00;;;4.90;;
7773;SDS011;3931;42.260;23.116;2022-10-17T02:44:13;8.20;;;5.00;;
7773;SDS011;3931;42.260;23.116;2022-10-17T02:46:40;8.83;;;4.57;;
7773;SDS011;3931;42.260;23.116;2022-10-17T02:49:10;6.93;;;5.17;;
7773;SDS011;3931;42.260;23.116;2022-10-17T02:51:41;12.07;;;5.30;;
7773;SDS011;3931;42.260;23.116;2022-10-17T02:54:13;6.83;;;5.00;;
7773;SDS011;3931;42.260;23.116;2022-10-17T02:56:45;7.43;;;5.10;;
7773;SDS011;3931;42.260;23.116;2022-10-17T02:59:16;7.43;;;5.00;;
7773;SDS011;3931;42.260;23.116;2022-10-17T03:01:46;9.80;;;6.27;;
7773;SDS011;3931;42.260;23.116;2022-10-17T03:04:15;10.37;;;6.03;;
7773;SDS011;3931;42.260;23.116;2022-10-17T03:06:43;9.50;;;5.00;;
7773;SDS011;3931;42.260;23.116;2022-10-17T03:09:10;11.37;;;5.53;;
7773;SDS011;3931;42.260;23.116;2022-10-17T03:11:37;8.10;;;5.30;;
7773;SDS011;3931;42.260;23.116;2022-10-17T03:14:03;11.50;;;5.77;;
7773;SDS011;3931;42.260;23.116;2022-10-17T03:16:29;12.13;;;6.80;;
7773;SDS011;3931;42.260;23.116;2022-10-17T03:18:55;9.30;;;6.00;;
7773;SDS011;3931;42.260;23.116;2022-10-17T03:21:21;9.30;;;6.20;;
7773;SDS011;3931;42.260;23.116;2022-10-17T03:23:48;10.93;;;5.60;;
7773;SDS011;3931;42.260;23.116;2022-10-17T03:26:14;9.17;;;6.23;;
7773;SDS011;3931;42.260;23.116;2022-10-17T03:28:40;9.33;;;6.17;;
7773;SDS011;3931;42.260;23.116;2022-10-17T03:31:07;16.10;;;6.13;;
7773;SDS011;3931;42.260;23.116;2022-10-17T03:33:34;18.83;;;6.50;;
7773;SDS011;3931;42.260;23.116;2022-10-17T03:36:03;13.03;;;6.60;;
7773;SDS011;3931;42.260;23.116;2022-10-17T03:38:30;24.83;;;6.40;;
7773;SDS011;3931;42.260;23.116;2022-10-17T03:40:57;8.87;;;5.50;;
7773;SDS011;3931;42.260;23.116;2022-10-17T03:43:23;9.93;;;5.93;;
7773;SDS011;3931;42.260;23.116;2022-10-17T03:45:49;12.30;;;5.60;;
7773;SDS011;3931;42.260;23.116;2022-10-17T03:48:15;8.17;;;5.80;;
7773;SDS011;3931;42.260;23.116;2022-10-17T03:50:41;15.40;;;6.83;;
7773;SDS011;3931;42.260;23.116;2022-10-17T03:53:07;6.83;;;5.10;;
7773;SDS011;3931;42.260;23.116;2022-10-17T03:55:33;11.07;;;6.37;;
7773;SDS011;3931;42.260;23.116;2022-10-17T03:58:00;10.03;;;5.90;;
7773;SDS011;3931;42.260;23.116;2022-10-17T04:00:26;9.43;;;6.40;;
7773;SDS011;3931;42.260;23.116;2022-10-17T04:02:52;13.63;;;7.57;;
7773;SDS011;3931;42.260;23.116;2022-10-17T04:05:18;12.97;;;7.00;;
7773;SDS011;3931;42.260;23.116;2022-10-17T04:07:44;18.07;;;7.97;;
7773;SDS011;3931;42.260;23.116;2022-10-17T04:10:11;20.77;;;6.60;;
7773;SDS011;3931;42.260;23.116;2022-10-17T04:12:37;10.37;;;6.67;;
7773;SDS011;3931;42.260;23.116;2022-10-17T04:15:05;27.90;;;8.13;;
7773;SDS011;3931;42.260;23.116;2022-10-17T04:17:31;15.40;;;7.47;;
7773;SDS011;3931;42.260;23.116;2022-10-17T04:19:57;11.10;;;6.40;;
7773;SDS011;3931;42.260;23.116;2022-10-17T04:22:24;18.83;;;6.70;;
7773;SDS011;3931;42.260;23.116;2022-10-17T04:24:50;18.60;;;6.60;;
7773;SDS011;3931;42.260;23.116;2022-10-17T04:27:16;13.27;;;6.80;;
7773;SDS011;3931;42.260;23.116;2022-10-17T04:29:42;14.07;;;8.97;;
7773;SDS011;3931;42.260;23.116;2022-10-17T04:32:09;18.37;;;9.10;;
7773;SDS011;3931;42.260;23.116;2022-10-17T04:34:35;14.37;;;8.93;;
7773;SDS011;3931;42.260;23.116;2022-10-17T04:37:01;17.23;;;8.23;;
7773;SDS011;3931;42.260;23.116;2022-10-17T04:39:28;13.20;;;9.00;;
7773;SDS011;3931;42.260;23.116;2022-10-17T04:41:54;9.53;;;7.03;;
7773;SDS011;3931;42.260;23.116;2022-10-17T04:44:20;11.47;;;7.57;;
7773;SDS011;3931;42.260;23.116;2022-10-17T04:46:46;21.07;;;8.33;;
7773;SDS011;3931;42.260;23.116;2022-10-17T04:49:13;19.67;;;9.53;;
7773;SDS011;3931;42.260;23.116;2022-10-17T04:51:39;17.27;;;9.40;;
7773;SDS011;3931;42.260;23.116;2022-10-17T04:54:05;14.10;;;8.30;;
7773;SDS011;3931;42.260;23.116;2022-10-17T04:56:31;12.73;;;7.00;;
7773;SDS011;3931;42.260;23.116;2022-10-17T04:58:58;16.43;;;9.00;;
7773;SDS011;3931;42.260;23.116;2022-10-17T05:01:24;18.77;;;8.80;;
7773;SDS011;3931;42.260;23.116;2022-10-17T05:03:51;17.57;;;8.20;;
7773;SDS011;3931;42.260;23.116;2022-10-17T05:06:19;15.63;;;8.47;;
7773;SDS011;3931;42.260;23.116;2022-10-17T05:08:47;37.73;;;14.47;;
7773;SDS011;3931;42.260;23.116;2022-10-17T05:11:16;34.40;;;14.77;;
7773;SDS011;3931;42.260;23.116;2022-10-17T05:13:44;26.03;;;13.70;;
7773;SDS011;3931;42.260;23.116;2022-10-17T05:16:13;26.43;;;16.03;;
7773;SDS011;3931;42.260;23.116;2022-10-17T05:18:39;15.33;;;8.23;;
7773;SDS011;3931;42.260;23.116;2022-10-17T05:21:05;16.87;;;8.20;;
7773;SDS011;3931;42.260;23.116;2022-10-17T05:23:32;19.70;;;10.07;;
7773;SDS011;3931;42.260;23.116;2022-10-17T05:25:58;17.07;;;9.50;;
7773;SDS011;3931;42.260;23.116;2022-10-17T05:28:24;17.63;;;10.43;;
7773;SDS011;3931;42.260;23.116;2022-10-17T05:30:50;19.60;;;9.47;;
7773;SDS011;3931;42.260;23.116;2022-10-17T05:33:16;12.00;;;7.77;;
7773;SDS011;3931;42.260;23.116;2022-10-17T05:35:43;26.43;;;8.90;;
7773;SDS011;3931;42.260;23.116;2022-10-17T05:38:09;18.33;;;10.20;;
7773;SDS011;3931;42.260;23.116;2022-10-17T05:40:35;13.67;;;9.10;;
7773;SDS011;3931;42.260;23.116;2022-10-17T05:43:03;16.80;;;10.90;;
7773;SDS011;3931;42.260;23.116;2022-10-17T05:45:29;16.33;;;7.93;;
7773;SDS011;3931;42.260;23.116;2022-10-17T05:47:55;16.40;;;8.07;;
7773;SDS011;3931;42.260;23.116;2022-10-17T05:50:21;11.73;;;7.30;;
7773;SDS011;3931;42.260;23.116;2022-10-17T05:52:51;15.10;;;8.10;;
7773;SDS011;3931;42.260;23.116;2022-10-17T05:55:18;19.90;;;7.97;;
7773;SDS011;3931;42.260;23.116;2022-10-17T05:57:44;19.80;;;9.63;;
7773;SDS011;3931;42.260;23.116;2022-10-17T06:00:11;14.53;;;8.43;;
7773;SDS011;3931;42.260;23.116;2022-10-17T06:02:38;16.93;;;8.73;;
7773;SDS011;3931;42.260;23.116;2022-10-17T06:05:04;16.63;;;8.90;;
7773;SDS011;3931;42.260;23.116;2022-10-17T06:07:30;14.37;;;9.03;;
7773;SDS011;3931;42.260;23.116;2022-10-17T06:09:56;16.33;;;9.00;;
7773;SDS011;3931;42.260;23.116;2022-10-17T06:12:23;21.17;;;9.20;;
7773;SDS011;3931;42.260;23.116;2022-10-17T06:14:50;17.33;;;8.77;;
7773;SDS011;3931;42.260;23.116;2022-10-17T06:17:16;15.90;;;8.10;;
7773;SDS011;3931;42.260;23.116;2022-10-17T06:19:42;14.33;;;7.37;;
7773;SDS011;3931;42.260;23.116;2022-10-17T06:22:08;11.50;;;7.60;;
7773;SDS011;3931;42.260;23.116;2022-10-17T06:24:35;13.33;;;6.53;;
7773;SDS011;3931;42.260;23.116;2022-10-17T06:27:01;15.13;;;6.93;;
7773;SDS011;3931;42.260;23.116;2022-10-17T06:29:27;16.20;;;7.10;;
7773;SDS011;3931;42.260;23.116;2022-10-17T06:31:54;13.97;;;6.10;;
7773;SDS011;3931;42.260;23.116;2022-10-17T06:34:20;9.77;;;5.87;;
7773;SDS011;3931;42.260;23.116;2022-10-17T06:36:46;12.10;;;5.57;;
7773;SDS011;3931;42.260;23.116;2022-10-17T06:39:12;7.37;;;5.80;;
7773;SDS011;3931;42.260;23.116;2022-10-17T06:41:39;12.73;;;6.80;;
7773;SDS011;3931;42.260;23.116;2022-10-17T06:44:05;19.80;;;7.13;;
7773;SDS011;3931;42.260;23.116;2022-10-17T06:46:35;8.10;;;5.50;;
7773;SDS011;3931;42.260;23.116;2022-10-17T06:49:02;14.80;;;6.03;;
7773;SDS011;3931;42.260;23.116;2022-10-17T06:51:28;15.33;;;6.37;;
7773;SDS011;3931;42.260;23.116;2022-10-17T06:53:55;6.63;;;5.30;;
7773;SDS011;3931;42.260;23.116;2022-10-17T06:56:22;11.13;;;6.07;;
7773;SDS011;3931;42.260;23.116;2022-10-17T06:58:48;9.20;;;5.50;;
7773;SDS011;3931;42.260;23.116;2022-10-17T07:01:15;19.63;;;6.27;;
7773;SDS011;3931;42.260;23.116;2022-10-17T07:03:41;15.40;;;6.30;;
7773;SDS011;3931;42.260;23.116;2022-10-17T07:06:08;7.27;;;5.27;;
7773;SDS011;3931;42.260;23.116;2022-10-17T07:08:35;17.17;;;6.50;;
7773;SDS011;3931;42.260;23.116;2022-10-17T07:11:07;10.23;;;6.03;;
7773;SDS011;3931;42.260;23.116;2022-10-17T07:13:34;12.87;;;6.37;;
7773;SDS011;3931;42.260;23.116;2022-10-17T07:16:00;8.00;;;5.90;;
7773;SDS011;3931;42.260;23.116;2022-10-17T07:18:26;14.93;;;6.70;;
7773;SDS011;3931;42.260;23.116;2022-10-17T07:20:52;12.60;;;6.47;;
7773;SDS011;3931;42.260;23.116;2022-10-17T07:23:19;10.43;;;6.63;;
7773;SDS011;3931;42.260;23.116;2022-10-17T07:25:45;14.33;;;6.30;;
7773;SDS011;3931;42.260;23.116;2022-10-17T07:28:12;8.30;;;6.10;;
7773;SDS011;3931;42.260;23.116;2022-10-17T07:30:38;15.43;;;7.90;;
7773;SDS011;3931;42.260;23.116;2022-10-17T07:33:04;14.97;;;6.53;;
7773;SDS011;3931;42.260;23.116;2022-10-17T07:35:30;10.43;;;6.63;;
7773;SDS011;3931;42.260;23.116;2022-10-17T07:37:57;12.63;;;6.47;;
7773;SDS011;3931;42.260;23.116;2022-10-17T07:40:24;12.20;;;6.80;;
7773;SDS011;3931;42.260;23.116;2022-10-17T07:42:50;12.37;;;5.40;;
7773;SDS011;3931;42.260;23.116;2022-10-17T07:45:16;15.07;;;6.70;;
7773;SDS011;3931;42.260;23.116;2022-10-17T07:47:42;20.33;;;6.93;;
7773;SDS011;3931;42.260;23.116;2022-10-17T07:50:08;19.00;;;6.80;;
7773;SDS011;3931;42.260;23.116;2022-10-17T07:52:34;10.33;;;6.57;;
7773;SDS011;3931;42.260;23.116;2022-10-17T07:55:00;17.43;;;6.90;;
7773;SDS011;3931;42.260;23.116;2022-10-17T07:57:27;16.77;;;7.93;;
7773;SDS011;3931;42.260;23.116;2022-10-17T07:59:53;13.27;;;7.00;;
7773;SDS011;3931;42.260;23.116;2022-10-17T08:02:20;12.90;;;6.83;;
7773;SDS011;3931;42.260;23.116;2022-10-17T08:04:48;17.20;;;6.60;;
7773;SDS011;3931;42.260;23.116;2022-10-17T08:07:14;16.83;;;6.57;;
7773;SDS011;3931;42.260;23.116;2022-10-17T08:09:40;20.80;;;6.87;;
7773;SDS011;3931;42.260;23.116;2022-10-17T08:12:06;21.03;;;6.10;;
7773;SDS011;3931;42.260;23.116;2022-10-17T08:14:33;25.83;;;6.90;;
7773;SDS011;3931;42.260;23.116;2022-10-17T08:16:59;30.30;;;6.93;;
7773;SDS011;3931;42.260;23.116;2022-10-17T08:19:25;26.70;;;7.30;;
7773;SDS011;3931;42.260;23.116;2022-10-17T08:21:51;50.07;;;7.73;;
7773;SDS011;3931;42.260;23.116;2022-10-17T08:24:18;26.07;;;6.43;;
7773;SDS011;3931;42.260;23.116;2022-10-17T08:26:44;15.80;;;6.30;;
7773;SDS011;3931;42.260;23.116;2022-10-17T08:29:11;17.53;;;5.97;;
7773;SDS011;3931;42.260;23.116;2022-10-17T08:31:39;30.13;;;6.63;;
7773;SDS011;3931;42.260;23.116;2022-10-17T08:34:05;15.70;;;5.80;;
7773;SDS011;3931;42.260;23.116;2022-10-17T08:36:31;12.70;;;5.90;;
7773;SDS011;3931;42.260;23.116;2022-10-17T08:38:57;17.50;;;6.00;;
7773;SDS011;3931;42.260;23.116;2022-10-17T08:41:29;10.03;;;5.43;;
7773;SDS011;3931;42.260;23.116;2022-10-17T08:44:09;16.37;;;5.70;;
7773;SDS011;3931;42.260;23.116;2022-10-17T08:46:45;27.73;;;6.07;;
7773;SDS011;3931;42.260;23.116;2022-10-17T08:49:15;36.87;;;6.60;;
7773;SDS011;3931;42.260;23.116;2022-10-17T08:51:48;13.93;;;6.10;;
7773;SDS011;3931;42.260;23.116;2022-10-17T08:54:19;17.50;;;5.70;;
7773;SDS011;3931;42.260;23.116;2022-10-17T08:56:51;16.23;;;5.33;;
7773;SDS011;3931;42.260;23.116;2022-10-17T08:59:20;12.97;;;5.43;;
7773;SDS011;3931;42.260;23.116;2022-10-17T09:01:52;11.70;;;5.10;;
7773;SDS011;3931;42.260;23.116;2022-10-17T09:07:23;14.70;;;5.77;;
7773;SDS011;3931;42.260;23.116;2022-10-17T09:09:58;9.43;;;5.23;;
7773;SDS011;3931;42.260;23.116;2022-10-17T09:12:35;13.90;;;5.40;;
7773;SDS011;3931;42.260;23.116;2022-10-17T09:17:59;14.63;;;5.80;;
7773;SDS011;3931;42.260;23.116;2022-10-17T09:20:32;24.83;;;6.40;;
7773;SDS011;3931;42.260;23.116;2022-10-17T09:23:04;17.00;;;5.23;;
7773;SDS011;3931;42.260;23.116;2022-10-17T09:25:39;13.37;;;5.50;;
7773;SDS011;3931;42.260;23.116;2022-10-17T09:28:11;14.00;;;5.43;;
7773;SDS011;3931;42.260;23.116;2022-10-17T09:30:42;13.00;;;5.13;;
7773;SDS011;3931;42.260;23.116;2022-10-17T09:33:12;16.73;;;5.40;;
7773;SDS011;3931;42.260;23.116;2022-10-17T09:35:39;12.60;;;5.40;;
7773;SDS011;3931;42.260;23.116;2022-10-17T09:38:08;11.47;;;5.27;;
7773;SDS011;3931;42.260;23.116;2022-10-17T09:40:39;8.90;;;5.07;;
7773;SDS011;3931;42.260;23.116;2022-10-17T09:43:06;11.60;;;5.13;;
7773;SDS011;3931;42.260;23.116;2022-10-17T09:45:38;13.90;;;4.93;;
7773;SDS011;3931;42.260;23.116;2022-10-17T09:48:10;11.90;;;4.83;;
7773;SDS011;3931;42.260;23.116;2022-10-17T09:50:43;13.80;;;5.50;;
7773;SDS011;3931;42.260;23.116;2022-10-17T09:53:11;11.87;;;4.90;;
7773;SDS011;3931;42.260;23.116;2022-10-17T09:55:41;15.43;;;5.60;;
7773;SDS011;3931;42.260;23.116;2022-10-17T09:58:09;15.50;;;4.90;;
7773;SDS011;3931;42.260;23.116;2022-10-17T10:00:37;14.90;;;5.43;;
7773;SDS011;3931;42.260;23.116;2022-10-17T10:03:08;14.20;;;5.17;;
7773;SDS011;3931;42.260;23.116;2022-10-17T10:05:38;14.40;;;5.10;;
7773;SDS011;3931;42.260;23.116;2022-10-17T10:08:11;13.40;;;4.90;;
7773;SDS011;3931;42.260;23.116;2022-10-17T10:10:39;11.80;;;5.20;;
7773;SDS011;3931;42.260;23.116;2022-10-17T10:13:15;8.93;;;5.10;;
7773;SDS011;3931;42.260;23.116;2022-10-17T10:15:44;11.93;;;4.50;;
7773;SDS011;3931;42.260;23.116;2022-10-17T10:21:03;11.67;;;5.00;;
7773;SDS011;3931;42.260;23.116;2022-10-17T10:23:31;20.53;;;4.93;;
7773;SDS011;3931;42.260;23.116;2022-10-17T10:25:58;23.77;;;4.57;;
7773;SDS011;3931;42.260;23.116;2022-10-17T10:28:28;37.07;;;5.30;;
7773;SDS011;3931;42.260;23.116;2022-10-17T10:30:56;14.23;;;4.20;;
7773;SDS011;3931;42.260;23.116;2022-10-17T10:33:25;15.23;;;5.37;;
7773;SDS011;3931;42.260;23.116;2022-10-17T10:35:55;8.40;;;4.37;;
7773;SDS011;3931;42.260;23.116;2022-10-17T10:38:23;11.13;;;4.60;;
7773;SDS011;3931;42.260;23.116;2022-10-17T10:40:50;9.03;;;4.67;;
7773;SDS011;3931;42.260;23.116;2022-10-17T10:43:20;12.43;;;4.53;;
7773;SDS011;3931;42.260;23.116;2022-10-17T10:45:49;9.23;;;3.80;;
7773;SDS011;3931;42.260;23.116;2022-10-17T10:48:18;6.20;;;4.07;;
7773;SDS011;3931;42.260;23.116;2022-10-17T10:50:47;13.13;;;3.83;;
7773;SDS011;3931;42.260;23.116;2022-10-17T10:53:21;12.10;;;4.17;;
7773;SDS011;3931;42.260;23.116;2022-10-17T10:55:55;7.93;;;3.20;;
7773;SDS011;3931;42.260;23.116;2022-10-17T10:58:26;5.87;;;3.97;;
7773;SDS011;3931;42.260;23.116;2022-10-17T11:00:59;12.03;;;4.07;;
7773;SDS011;3931;42.260;23.116;2022-10-17T11:03:31;9.50;;;4.50;;
7773;SDS011;3931;42.260;23.116;2022-10-17T11:06:03;8.90;;;3.60;;
7773;SDS011;3931;42.260;23.116;2022-10-17T11:08:37;10.40;;;3.77;;
7773;SDS011;3931;42.260;23.116;2022-10-17T11:11:11;8.43;;;3.83;;
7773;SDS011;3931;42.260;23.116;2022-10-17T11:13:43;6.80;;;3.70;;
7773;SDS011;3931;42.260;23.116;2022-10-17T11:16:20;7.47;;;3.80;;
7773;SDS011;3931;42.260;23.116;2022-10-17T11:18:54;6.07;;;3.63;;
7773;SDS011;3931;42.260;23.116;2022-10-17T11:21:31;8.63;;;3.60;;
7773;SDS011;3931;42.260;23.116;2022-10-17T11:24:07;5.27;;;3.10;;
7773;SDS011;3931;42.260;23.116;2022-10-17T11:26:40;5.50;;;3.10;;
7773;SDS011;3931;42.260;23.116;2022-10-17T11:29:09;7.90;;;3.80;;
7773;SDS011;3931;42.260;23.116;2022-10-17T11:31:38;4.40;;;2.70;;
7773;SDS011;3931;42.260;23.116;2022-10-17T11:34:13;5.00;;;3.50;;
7773;SDS011;3931;42.260;23.116;2022-10-17T11:36:45;8.43;;;3.10;;
7773;SDS011;3931;42.260;23.116;2022-10-17T11:39:17;4.07;;;2.90;;
7773;SDS011;3931;42.260;23.116;2022-10-17T11:41:45;14.40;;;3.70;;
7773;SDS011;3931;42.260;23.116;2022-10-17T11:44:17;8.07;;;2.50;;
7773;SDS011;3931;42.260;23.116;2022-10-17T11:46:47;5.13;;;2.20;;
7773;SDS011;3931;42.260;23.116;2022-10-17T11:49:19;7.80;;;2.20;;
7773;SDS011;3931;42.260;23.116;2022-10-17T11:51:50;7.00;;;2.87;;
7773;SDS011;3931;42.260;23.116;2022-10-17T11:54:21;4.30;;;2.70;;
7773;SDS011;3931;42.260;23.116;2022-10-17T11:56:53;11.80;;;2.83;;
7773;SDS011;3931;42.260;23.116;2022-10-17T11:59:38;9.23;;;2.17;;
7773;SDS011;3931;42.260;23.116;2022-10-17T12:02:22;2.60;;;1.70;;
7773;SDS011;3931;42.260;23.116;2022-10-17T12:04:58;3.70;;;1.83;;
7773;SDS011;3931;42.260;23.116;2022-10-17T12:07:33;4.90;;;1.80;;
7773;SDS011;3931;42.260;23.116;2022-10-17T12:10:15;2.60;;;1.80;;
7773;SDS011;3931;42.260;23.116;2022-10-17T12:12:49;4.77;;;2.20;;
7773;SDS011;3931;42.260;23.116;2022-10-17T12:15:28;5.80;;;2.03;;
7773;SDS011;3931;42.260;23.116;2022-10-17T12:17:56;4.53;;;1.70;;
7773;SDS011;3931;42.260;23.116;2022-10-17T12:20:30;3.37;;;2.20;;
7773;SDS011;3931;42.260;23.116;2022-10-17T12:25:48;16.93;;;2.13;;
7773;SDS011;3931;42.260;23.116;2022-10-17T12:28:17;6.73;;;2.57;;
7773;SDS011;3931;42.260;23.116;2022-10-17T12:30:51;7.60;;;2.53;;
7773;SDS011;3931;42.260;23.116;2022-10-17T12:33:24;7.63;;;2.40;;
7773;SDS011;3931;42.260;23.116;2022-10-17T12:38:51;4.57;;;2.33;;
7773;SDS011;3931;42.260;23.116;2022-10-17T12:41:54;10.83;;;2.03;;
7773;SDS011;3931;42.260;23.116;2022-10-17T12:44:34;3.40;;;1.80;;
7773;SDS011;3931;42.260;23.116;2022-10-17T12:47:26;8.00;;;2.23;;
7773;SDS011;3931;42.260;23.116;2022-10-17T12:49:53;7.23;;;1.50;;
7773;SDS011;3931;42.260;23.116;2022-10-17T12:52:23;6.23;;;2.60;;
7773;SDS011;3931;42.260;23.116;2022-10-17T12:55:04;2.90;;;2.30;;
7773;SDS011;3931;42.260;23.116;2022-10-17T12:57:34;7.83;;;2.30;;
7773;SDS011;3931;42.260;23.116;2022-10-17T13:00:12;8.97;;;1.97;;
7773;SDS011;3931;42.260;23.116;2022-10-17T13:02:42;5.07;;;2.47;;
7773;SDS011;3931;42.260;23.116;2022-10-17T13:05:10;9.93;;;2.40;;
7773;SDS011;3931;42.260;23.116;2022-10-17T13:07:41;5.50;;;2.40;;
7773;SDS011;3931;42.260;23.116;2022-10-17T13:10:16;4.27;;;2.57;;
7773;SDS011;3931;42.260;23.116;2022-10-17T13:12:45;12.03;;;2.07;;
7773;SDS011;3931;42.260;23.116;2022-10-17T13:15:14;2.30;;;1.80;;
7773;SDS011;3931;42.260;23.116;2022-10-17T13:17:43;3.63;;;2.00;;
7773;SDS011;3931;42.260;23.116;2022-10-17T13:20:16;2.27;;;1.70;;
7773;SDS011;3931;42.260;23.116;2022-10-17T13:22:45;9.37;;;1.77;;
7773;SDS011;3931;42.260;23.116;2022-10-17T13:25:14;2.00;;;1.73;;
7773;SDS011;3931;42.260;23.116;2022-10-17T13:27:41;5.73;;;2.37;;
7773;SDS011;3931;42.260;23.116;2022-10-17T13:30:22;13.43;;;2.50;;
7773;SDS011;3931;42.260;23.116;2022-10-17T13:32:50;2.90;;;2.20;;
7773;SDS011;3931;42.260;23.116;2022-10-17T13:35:21;2.17;;;1.80;;
7773;SDS011;3931;42.260;23.116;2022-10-17T13:37:49;3.93;;;1.97;;
7773;SDS011;3931;42.260;23.116;2022-10-17T13:40:17;7.10;;;3.90;;
7773;SDS011;3931;42.260;23.116;2022-10-17T13:42:44;3.43;;;2.40;;
7773;SDS011;3931;42.260;23.116;2022-10-17T13:45:14;5.67;;;1.80;;
7773;SDS011;3931;42.260;23.116;2022-10-17T13:47:44;7.53;;;2.27;;
7773;SDS011;3931;42.260;23.116;2022-10-17T13:50:15;11.40;;;2.90;;
7773;SDS011;3931;42.260;23.116;2022-10-17T13:52:45;9.50;;;2.37;;
7773;SDS011;3931;42.260;23.116;2022-10-17T13:55:13;9.00;;;2.23;;
7773;SDS011;3931;42.260;23.116;2022-10-17T13:57:41;7.80;;;2.00;;
7773;SDS011;3931;42.260;23.116;2022-10-17T14:00:10;3.00;;;1.80;;
7773;SDS011;3931;42.260;23.116;2022-10-17T14:02:47;7.40;;;2.27;;
7773;SDS011;3931;42.260;23.116;2022-10-17T14:05:14;8.47;;;2.30;;
7773;SDS011;3931;42.260;23.116;2022-10-17T14:07:43;3.27;;;2.13;;
7773;SDS011;3931;42.260;23.116;2022-10-17T14:10:18;2.60;;;2.30;;
7773;SDS011;3931;42.260;23.116;2022-10-17T14:12:49;6.20;;;2.30;;
7773;SDS011;3931;42.260;23.116;2022-10-17T14:15:17;9.83;;;2.67;;
7773;SDS011;3931;42.260;23.116;2022-10-17T14:17:44;4.80;;;2.80;;
7773;SDS011;3931;42.260;23.116;2022-10-17T14:20:16;4.03;;;2.20;;
7773;SDS011;3931;42.260;23.116;2022-10-17T14:22:43;2.80;;;1.57;;
7773;SDS011;3931;42.260;23.116;2022-10-17T14:25:25;7.43;;;2.30;;
7773;SDS011;3931;42.260;23.116;2022-10-17T14:27:53;8.70;;;3.70;;
7773;SDS011;3931;42.260;23.116;2022-10-17T14:30:30;6.77;;;3.10;;
7773;SDS011;3931;42.260;23.116;2022-10-17T14:32:58;7.50;;;2.47;;
7773;SDS011;3931;42.260;23.116;2022-10-17T14:35:28;10.10;;;2.70;;
7773;SDS011;3931;42.260;23.116;2022-10-17T14:37:56;5.60;;;2.43;;
7773;SDS011;3931;42.260;23.116;2022-10-17T14:40:24;2.30;;;1.83;;
7773;SDS011;3931;42.260;23.116;2022-10-17T14:42:52;5.60;;;2.20;;
7773;SDS011;3931;42.260;23.116;2022-10-17T14:45:21;7.10;;;2.70;;
7773;SDS011;3931;42.260;23.116;2022-10-17T14:47:51;8.50;;;2.70;;
7773;SDS011;3931;42.260;23.116;2022-10-17T14:50:22;3.53;;;2.30;;
7773;SDS011;3931;42.260;23.116;2022-10-17T14:53:00;8.93;;;3.10;;
7773;SDS011;3931;42.260;23.116;2022-10-17T14:55:29;4.97;;;2.40;;
7773;SDS011;3931;42.260;23.116;2022-10-17T14:57:56;9.03;;;2.23;;
7773;SDS011;3931;42.260;23.116;2022-10-17T15:00:23;6.33;;;2.40;;
7773;SDS011;3931;42.260;23.116;2022-10-17T15:02:50;3.07;;;2.20;;
7773;SDS011;3931;42.260;23.116;2022-10-17T15:05:17;9.60;;;2.45;;
7773;SDS011;3931;42.260;23.116;2022-10-17T15:07:44;5.10;;;2.77;;
7773;SDS011;3931;42.260;23.116;2022-10-17T15:10:23;5.13;;;2.30;;
7773;SDS011;3931;42.260;23.116;2022-10-17T15:12:53;7.43;;;4.00;;
7773;SDS011;3931;42.260;23.116;2022-10-17T15:15:19;18.60;;;3.97;;
7773;SDS011;3931;42.260;23.116;2022-10-17T15:17:45;5.53;;;3.20;;
7773;SDS011;3931;42.260;23.116;2022-10-17T15:20:12;8.00;;;2.17;;
7773;SDS011;3931;42.260;23.116;2022-10-17T15:22:40;4.73;;;2.80;;
7773;SDS011;3931;42.260;23.116;2022-10-17T15:25:07;8.07;;;2.93;;